createdAt,value
2023-05-01T00:00:15.358Z,100322.38
2023-05-01T00:02:49.889Z,100322.28
2023-05-01T00:05:18.589Z,100317.84
2023-05-01T00:07:47.270Z,100311.63
2023-05-01T00:10:15.890Z,100313.34
2023-05-01T00:12:44.421Z,100315.06
2023-05-01T00:15:14.431Z,100305.34
2023-05-01T00:17:43.047Z,100300.84
2023-05-01T00:20:12.275Z,100304.28
2023-05-01T00:22:41.079Z,100304.19
2023-05-01T00:25:10.603Z,100293.63
2023-05-01T00:27:39.155Z,100292.63
2023-05-01T00:30:09.368Z,100298.63
2023-05-01T00:32:39.725Z,100295.94
2023-05-01T00:35:09.152Z,100302.00
2023-05-01T00:37:38.575Z,100294.88
2023-05-01T00:40:08.767Z,100300.06
2023-05-01T00:42:39.353Z,100292.91
2023-05-01T00:45:09.523Z,100289.28
2023-05-01T00:47:40.506Z,100292.69
2023-05-01T00:50:10.595Z,100296.09
2023-05-01T00:52:40.119Z,100281.97
2023-05-01T00:55:09.960Z,100285.41
2023-05-01T00:57:39.109Z,100285.28
2023-05-01T01:00:12.428Z,100272.94
2023-05-01T01:02:42.424Z,100270.25
2023-05-01T01:05:11.553Z,100270.94
2023-05-01T01:07:50.461Z,100269.06
2023-05-01T01:10:28.752Z,100255.88
2023-05-01T01:13:05.558Z,100263.63
2023-05-01T01:15:41.211Z,100253.00
2023-05-01T01:18:17.977Z,100253.75
2023-05-01T01:20:51.207Z,100257.97
2023-05-01T01:23:44.070Z,100245.47
2023-05-01T01:26:21.153Z,100247.03
2023-05-01T01:29:23.165Z,100246.88
2023-05-01T01:32:02.645Z,100241.47
2023-05-01T01:34:35.359Z,100243.06
2023-05-01T01:37:12.710Z,100238.53
2023-05-01T01:39:47.609Z,100229.59
2023-05-01T01:42:21.543Z,100239.09
2023-05-01T01:44:53.963Z,100238.06
2023-05-01T01:47:28.330Z,100227.44
2023-05-01T01:50:02.191Z,100225.56
2023-05-01T01:52:32.544Z,100233.31
2023-05-01T01:55:06.435Z,100226.22
2023-05-01T01:57:37.894Z,100220.91
2023-05-01T02:00:09.022Z,100216.47
2023-05-01T02:02:43.076Z,100217.25
2023-05-01T02:05:15.918Z,100216.31
2023-05-01T02:07:48.103Z,100211.00
2023-05-01T02:10:17.923Z,100215.19
2023-05-01T02:12:48.048Z,100215.91
2023-05-01T02:15:19.084Z,100203.53
2023-05-01T02:17:49.917Z,100199.88
2023-05-01T02:20:21.352Z,100190.19
2023-05-01T02:22:52.598Z,100200.63
2023-05-01T02:25:21.407Z,100191.00
2023-05-01T02:27:56.839Z,100189.22
2023-05-01T02:30:25.637Z,100187.41
2023-05-01T02:32:54.563Z,100182.97
2023-05-01T02:35:24.705Z,100182.97
2023-05-01T02:37:53.547Z,100180.34
2023-05-01T02:40:22.325Z,100178.63
2023-05-01T02:42:52.861Z,100172.50
2023-05-01T02:45:25.890Z,100178.63
2023-05-01T02:47:59.859Z,100169.91
2023-05-01T02:50:31.113Z,100161.19
2023-05-01T02:53:00.243Z,100155.94
2023-05-01T02:55:54.902Z,100152.44
2023-05-01T02:58:23.690Z,100157.69
2023-05-01T03:00:52.518Z,100155.06
2023-05-01T03:03:21.998Z,100152.44
2023-05-01T03:05:52.144Z,100145.47
2023-05-01T03:08:20.687Z,100149.84
2023-05-01T03:10:49.187Z,100141.13
2023-05-01T03:13:19.395Z,100145.56
2023-05-01T03:15:47.926Z,100133.34
2023-05-01T03:18:16.481Z,100135.13
2023-05-01T03:20:54.448Z,100129.88
2023-05-01T03:23:23.553Z,100132.56
2023-05-01T03:25:54.828Z,100124.66
2023-05-01T03:28:23.963Z,100121.16
2023-05-01T03:30:55.079Z,100115.06
2023-05-01T03:33:23.741Z,100115.06
2023-05-01T03:36:03.577Z,100110.78
2023-05-01T03:38:33.273Z,100109.91
2023-05-01T03:41:10.617Z,100100.25
2023-05-01T03:43:57.937Z,100107.28
2023-05-01T03:46:40.652Z,100104.66
2023-05-01T03:49:14.916Z,100100.31
2023-05-01T03:51:50.800Z,100103.78
2023-05-01T03:54:20.022Z,100103.78
2023-05-01T03:57:06.495Z,100097.72
2023-05-01T03:59:35.433Z,100095.03
2023-05-01T04:02:05.168Z,100098.50
2023-05-01T04:04:36.767Z,100093.22
2023-05-01T04:07:07.294Z,100094.06
2023-05-01T04:09:36.058Z,100088.00
2023-05-01T04:12:04.869Z,100093.22
2023-05-01T04:14:33.495Z,100090.59
2023-05-01T04:17:02.128Z,100081.88
2023-05-01T04:19:34.835Z,100094.06
2023-05-01T04:22:05.620Z,100088.84
2023-05-01T04:24:37.612Z,100095.81
2023-05-01T04:27:07.019Z,100081.84
2023-05-01T04:29:35.629Z,100086.19
2023-05-01T04:32:04.509Z,100082.72
2023-05-01T04:34:33.251Z,100084.50
2023-05-01T04:37:03.100Z,100081.00
2023-05-01T04:39:31.746Z,100084.50
2023-05-01T04:42:02.261Z,100079.31
2023-05-01T04:44:30.944Z,100076.72
2023-05-01T04:47:00.214Z,100079.34
2023-05-01T04:49:28.831Z,100077.66
2023-05-01T04:51:57.584Z,100077.66
2023-05-01T04:54:30.942Z,100078.66
2023-05-01T04:57:00.914Z,100083.97
2023-05-01T04:59:29.523Z,100084.06
2023-05-01T05:01:58.247Z,100078.03
2023-05-01T05:04:27.039Z,100084.25
2023-05-01T05:06:55.888Z,100079.97
2023-05-01T05:09:32.314Z,100082.72
2023-05-01T05:12:03.964Z,100082.88
2023-05-01T05:14:33.512Z,100077.78
2023-05-01T05:17:02.465Z,100086.63
2023-05-01T05:19:31.054Z,100085.84
2023-05-01T05:21:59.832Z,100082.53
2023-05-01T05:24:28.857Z,100079.19
2023-05-01T05:26:58.013Z,100080.19
2023-05-01T05:29:27.953Z,100077.72
2023-05-01T05:31:57.897Z,100089.19
2023-05-01T05:34:26.674Z,100077.09
2023-05-01T05:36:55.649Z,100082.53
2023-05-01T05:39:26.762Z,100078.22
2023-05-01T05:41:55.482Z,100079.28
2023-05-01T05:44:24.090Z,100075.91
2023-05-01T05:46:54.315Z,100067.25
2023-05-01T05:49:30.509Z,100076.09
2023-05-01T05:51:59.111Z,100076.28
2023-05-01T05:54:27.683Z,100076.41
2023-05-01T05:56:56.735Z,100071.31
2023-05-01T05:59:25.182Z,100074.06
2023-05-01T06:01:55.056Z,100074.22
2023-05-01T06:04:23.575Z,100078.72
2023-05-01T06:06:52.708Z,100071.03
2023-05-01T06:09:21.520Z,100074.69
2023-05-01T06:11:50.172Z,100073.09
2023-05-01T06:14:19.069Z,100068.91
2023-05-01T06:16:48.051Z,100068.19
2023-05-01T06:19:18.453Z,100075.41
2023-05-01T06:21:49.678Z,100069.41
2023-05-01T06:24:18.625Z,100060.81
2023-05-01T06:26:49.790Z,100061.88
2023-05-01T06:29:18.277Z,100062.91
2023-05-01T06:31:47.382Z,100064.81
2023-05-01T06:34:17.614Z,100058.81
2023-05-01T06:36:53.572Z,100062.47
2023-05-01T06:39:22.378Z,100066.16
2023-05-01T06:41:51.422Z,100071.53
2023-05-01T06:44:32.754Z,100064.63
2023-05-01T06:47:03.586Z,100061.25
2023-05-01T06:49:33.862Z,100070.13
2023-05-01T06:52:02.853Z,100071.13
2023-05-01T06:54:31.552Z,100062.47
2023-05-01T06:57:00.294Z,100067.81
2023-05-01T06:59:28.930Z,100067.88
2023-05-01T07:01:57.527Z,100070.63
2023-05-01T07:04:26.223Z,100062.81
2023-05-01T07:06:56.120Z,100066.41
2023-05-01T07:09:24.704Z,100066.50
2023-05-01T07:11:53.326Z,100063.97
2023-05-01T07:14:21.974Z,100070.22
2023-05-01T07:16:50.899Z,100068.53
2023-05-01T07:19:19.745Z,100066.84
2023-05-01T07:21:48.397Z,100071.31
2023-05-01T07:24:18.408Z,100070.50
2023-05-01T07:26:46.915Z,100065.31
2023-05-01T07:29:16.664Z,100060.13
2023-05-01T07:31:45.482Z,100057.56
2023-05-01T07:34:13.999Z,100062.03
2023-05-01T07:36:42.641Z,100062.06
2023-05-01T07:39:11.380Z,100054.22
2023-05-01T07:41:41.386Z,100053.44
2023-05-01T07:44:10.247Z,100048.25
2023-05-01T07:46:39.686Z,100051.81
2023-05-01T07:49:09.057Z,100043.13
2023-05-01T07:51:37.637Z,100052.84
2023-05-01T07:54:06.263Z,100040.63
2023-05-01T07:56:35.092Z,100042.47
2023-05-01T07:59:05.085Z,100043.41
2023-05-01T08:01:34.960Z,100047.00
2023-05-01T08:04:03.705Z,100049.69
2023-05-01T08:06:33.034Z,100036.59
2023-05-01T08:09:01.618Z,100041.94
2023-05-01T08:11:30.454Z,100038.47
2023-05-01T08:13:58.978Z,100049.06
2023-05-01T08:16:28.900Z,100048.22
2023-05-01T08:18:57.619Z,100043.84
2023-05-01T08:21:26.528Z,100039.50
2023-05-01T08:23:57.034Z,100045.69
2023-05-01T08:26:25.572Z,100040.47
2023-05-01T08:28:54.260Z,100031.69
2023-05-01T08:31:25.024Z,100036.13
2023-05-01T08:33:55.153Z,100041.44
2023-05-01T08:36:24.042Z,100049.41
2023-05-01T08:38:52.924Z,100055.59
2023-05-01T08:41:23.783Z,100047.72
2023-05-01T08:43:52.312Z,100043.34
2023-05-01T08:46:26.979Z,100044.25
2023-05-01T08:49:01.038Z,100039.91
2023-05-01T08:51:32.240Z,100035.56
2023-05-01T08:54:02.533Z,100032.97
2023-05-01T08:56:33.508Z,100032.97
2023-05-01T08:59:03.993Z,100031.31
2023-05-01T09:01:34.815Z,100026.06
2023-05-01T09:04:07.797Z,100019.91
2023-05-01T09:06:36.463Z,100023.50
2023-05-01T09:09:05.126Z,100027.91
2023-05-01T09:11:34.021Z,100037.59
2023-05-01T09:14:05.406Z,100034.97
2023-05-01T09:16:34.063Z,100036.78
2023-05-01T09:19:02.687Z,100038.53
2023-05-01T09:21:32.878Z,100028.84
2023-05-01T09:24:03.604Z,100029.75
2023-05-01T09:26:34.267Z,100031.53
2023-05-01T09:29:02.786Z,100041.22
2023-05-01T09:31:32.818Z,100037.69
2023-05-01T09:34:02.705Z,100042.13
2023-05-01T09:36:34.079Z,100039.50
2023-05-01T09:39:02.914Z,100030.69
2023-05-01T09:41:33.498Z,100031.56
2023-05-01T09:44:02.544Z,100028.94
2023-05-01T09:46:43.758Z,100026.31
2023-05-01T09:49:12.371Z,100024.53
2023-05-01T09:51:43.258Z,100021.00
2023-05-01T09:54:21.805Z,100025.44
2023-05-01T09:56:51.176Z,100018.34
2023-05-01T09:59:21.352Z,100024.53
2023-05-01T10:01:50.919Z,100021.00
2023-05-01T10:04:31.892Z,100016.53
2023-05-01T10:07:13.289Z,100024.44
2023-05-01T10:09:42.464Z,100018.25
2023-05-01T10:12:11.132Z,100012.06
2023-05-01T10:14:52.222Z,100015.59
2023-05-01T10:17:21.271Z,100015.56
2023-05-01T10:19:50.721Z,100015.53
2023-05-01T10:22:20.625Z,100017.28
2023-05-01T10:24:49.244Z,100012.84
2023-05-01T10:27:19.320Z,100008.41
2023-05-01T10:29:49.075Z,100013.69
2023-05-01T10:32:17.607Z,100011.91
2023-05-01T10:34:52.714Z,100003.03
2023-05-01T10:37:28.592Z,100006.50
2023-05-01T10:39:57.758Z,100006.47
2023-05-01T10:42:26.346Z,100006.41
2023-05-01T10:44:55.171Z,100002.84
2023-05-01T10:47:45.850Z,99998.47
2023-05-01T10:50:16.172Z,99993.13
2023-05-01T10:53:20.177Z,99996.59
2023-05-01T10:55:50.284Z,99989.50
2023-05-01T10:58:57.079Z,99986.84
2023-05-01T11:01:30.823Z,99994.72
2023-05-01T11:04:00.487Z,99990.28
2023-05-01T11:06:29.456Z,99983.22
2023-05-01T11:08:59.779Z,99981.41
2023-05-01T11:11:49.338Z,99982.28
2023-05-01T11:14:18.172Z,99975.19
2023-05-01T11:16:49.066Z,99975.09
2023-05-01T11:19:52.497Z,99969.72
2023-05-01T11:22:21.241Z,99972.31
2023-05-01T11:24:51.217Z,99978.41
2023-05-01T11:27:19.732Z,99974.88
2023-05-01T11:29:50.846Z,99976.59
2023-05-01T11:32:27.132Z,99970.31
2023-05-01T11:34:56.390Z,99974.66
2023-05-01T11:37:42.016Z,99967.53
2023-05-01T11:40:22.805Z,99963.03
2023-05-01T11:42:52.707Z,99965.59
2023-05-01T11:45:21.478Z,99959.28
2023-05-01T11:47:50.235Z,99965.38
2023-05-01T11:50:18.824Z,99961.69
2023-05-01T11:52:49.593Z,99953.63
2023-05-01T11:55:18.594Z,99954.38
2023-05-01T11:57:50.143Z,99955.88
2023-05-01T12:00:28.770Z,99957.44
2023-05-01T12:03:01.999Z,99964.47
2023-05-01T12:05:36.880Z,99961.81
2023-05-01T12:08:13.672Z,99955.56
2023-05-01T12:10:43.302Z,99958.34
2023-05-01T12:13:14.732Z,99953.03
2023-05-01T12:15:47.312Z,99962.94
2023-05-01T12:18:17.216Z,99952.28
2023-05-01T12:20:47.354Z,99948.72
2023-05-01T12:23:17.211Z,99940.75
2023-05-01T12:25:47.046Z,99938.94
2023-05-01T12:28:19.980Z,99946.81
2023-05-01T12:30:50.128Z,99945.00
2023-05-01T12:33:19.886Z,99943.34
2023-05-01T12:35:49.864Z,99936.41
2023-05-01T12:38:19.924Z,99943.59
2023-05-01T12:40:56.798Z,99940.06
2023-05-01T12:43:33.923Z,99941.03
2023-05-01T12:46:04.244Z,99939.34
2023-05-01T12:48:34.389Z,99930.50
2023-05-01T12:51:03.060Z,99934.91
2023-05-01T12:53:31.796Z,99932.25
2023-05-01T12:56:01.303Z,99933.13
2023-05-01T12:58:38.330Z,99931.38
2023-05-01T13:01:07.304Z,99933.16
2023-05-01T13:03:38.546Z,99934.03
2023-05-01T13:06:09.581Z,99934.03
2023-05-01T13:08:39.824Z,99931.38
2023-05-01T13:11:13.627Z,99929.66
2023-05-01T13:13:45.065Z,99940.34
2023-05-01T13:16:15.072Z,99926.25
2023-05-01T13:18:48.558Z,99929.91
2023-05-01T13:21:18.661Z,99935.31
2023-05-01T13:23:54.522Z,99936.28
2023-05-01T13:26:31.094Z,99930.16
2023-05-01T13:29:02.092Z,99931.94
2023-05-01T13:31:31.526Z,99931.13
2023-05-01T13:34:02.409Z,99930.31
2023-05-01T13:36:33.591Z,99929.53
2023-05-01T13:39:02.262Z,99930.47
2023-05-01T13:41:31.035Z,99932.31
2023-05-01T13:44:00.941Z,99939.50
2023-05-01T13:46:30.386Z,99939.56
2023-05-01T13:49:05.650Z,99935.19
2023-05-01T13:51:37.980Z,99938.81
2023-05-01T13:54:08.081Z,99943.31
2023-05-01T13:56:37.385Z,99946.94
2023-05-01T13:59:07.414Z,99951.38
2023-05-01T14:01:42.488Z,99947.03
2023-05-01T14:04:11.967Z,99953.31
2023-05-01T14:06:44.340Z,99944.47
2023-05-01T14:09:12.947Z,99939.16
2023-05-01T14:11:46.648Z,99948.91
2023-05-01T14:14:18.721Z,99948.94
2023-05-01T14:16:49.065Z,99948.94
2023-05-01T14:19:18.558Z,99945.44
2023-05-01T14:21:47.726Z,99945.44
2023-05-01T14:24:18.274Z,99950.75
2023-05-01T14:26:49.652Z,99941.91
2023-05-01T14:29:24.931Z,99947.22
2023-05-01T14:31:54.629Z,99950.75
2023-05-01T14:34:24.383Z,99950.75
2023-05-01T14:36:55.580Z,99952.50
2023-05-01T14:39:24.263Z,99953.34
2023-05-01T14:41:53.167Z,99948.91
2023-05-01T14:44:27.442Z,99962.13
2023-05-01T14:46:56.261Z,99961.25
2023-05-01T14:49:26.058Z,99970.97
2023-05-01T14:51:55.368Z,99988.66
2023-05-01T14:54:23.989Z,99995.75
2023-05-01T14:56:52.489Z,100009.00
2023-05-01T14:59:22.859Z,100002.84
2023-05-01T15:01:53.157Z,100009.06
2023-05-01T15:04:22.299Z,100008.22
2023-05-01T15:06:50.983Z,100017.03
2023-05-01T15:09:19.653Z,100014.44
2023-05-01T15:11:48.218Z,100011.78
2023-05-01T15:14:16.763Z,100008.25
2023-05-01T15:16:45.546Z,100012.69
2023-05-01T15:19:15.586Z,100017.13
2023-05-01T15:21:44.185Z,100008.28
2023-05-01T15:24:12.786Z,100016.25
2023-05-01T15:26:41.355Z,100026.84
2023-05-01T15:29:10.042Z,100032.19
2023-05-01T15:31:39.103Z,100036.63
2023-05-01T15:34:08.100Z,100031.34
2023-05-01T15:36:38.072Z,100043.72
2023-05-01T15:39:11.648Z,100044.59
2023-05-01T15:41:40.211Z,100048.97
2023-05-01T15:44:10.956Z,100053.41
2023-05-01T15:46:39.669Z,100056.91
2023-05-01T15:49:10.247Z,100062.19
2023-05-01T15:51:40.294Z,100063.91
2023-05-01T15:54:08.986Z,100070.03
2023-05-01T15:56:38.168Z,100066.44
2023-05-01T15:59:08.037Z,100068.09
2023-05-01T16:01:36.950Z,100074.25
2023-05-01T16:04:05.862Z,100073.25
2023-05-01T16:06:35.962Z,100083.75
2023-05-01T16:09:06.156Z,100081.84
2023-05-01T16:11:34.905Z,100082.66
2023-05-01T16:14:03.626Z,100087.94
2023-05-01T16:16:32.290Z,100086.22
2023-05-01T16:19:02.101Z,100090.75
2023-05-01T16:21:30.771Z,100099.63
2023-05-01T16:23:59.306Z,100100.59
2023-05-01T16:26:31.382Z,100095.38
2023-05-01T16:29:01.863Z,100102.56
2023-05-01T16:31:35.829Z,100099.94
2023-05-01T16:34:06.619Z,100100.00
2023-05-01T16:36:37.899Z,100099.16
2023-05-01T16:39:08.915Z,100092.16
2023-05-01T16:41:46.393Z,100103.63
2023-05-01T16:44:16.251Z,100099.28
2023-05-01T16:46:52.022Z,100100.19
2023-05-01T16:49:20.898Z,100103.72
2023-05-01T16:51:49.390Z,100102.88
2023-05-01T16:54:18.008Z,100102.00
2023-05-01T16:56:47.899Z,100095.84
2023-05-01T16:59:16.644Z,100095.88
2023-05-01T17:01:45.249Z,100086.19
2023-05-01T17:04:15.292Z,100084.44
2023-05-01T17:06:44.027Z,100089.69
2023-05-01T17:09:12.592Z,100094.13
2023-05-01T17:11:57.499Z,100084.44
2023-05-01T17:14:28.704Z,100096.75
2023-05-01T17:16:58.912Z,100096.75
2023-05-01T17:19:27.719Z,100087.94
2023-05-01T17:21:57.819Z,100094.13
2023-05-01T17:24:26.898Z,100102.06
2023-05-01T17:26:57.255Z,100097.66
2023-05-01T17:29:25.791Z,100104.75
2023-05-01T17:31:54.400Z,100109.16
2023-05-01T17:34:23.013Z,100109.16
2023-05-01T17:36:51.620Z,100117.97
2023-05-01T17:39:21.661Z,100114.47
2023-05-01T17:41:50.445Z,100111.81
2023-05-01T17:44:20.300Z,100111.81
2023-05-01T17:46:49.125Z,100118.88
2023-05-01T17:49:17.639Z,100119.75
2023-05-01T17:51:46.292Z,100128.59
2023-05-01T17:54:17.438Z,100128.59
2023-05-01T17:56:46.163Z,100122.44
2023-05-01T17:59:14.803Z,100124.19
2023-05-01T18:01:44.762Z,100127.69
2023-05-01T18:04:13.817Z,100135.63
2023-05-01T18:06:42.788Z,100133.88
2023-05-01T18:09:11.537Z,100130.34
2023-05-01T18:11:40.158Z,100140.91
2023-05-01T18:14:09.116Z,100140.03
2023-05-01T18:16:37.705Z,100138.25
2023-05-01T18:19:07.704Z,100140.88
2023-05-01T18:21:36.299Z,100147.03
2023-05-01T18:24:05.087Z,100140.88
2023-05-01T18:26:33.633Z,100144.38
2023-05-01T18:29:02.677Z,100147.91
2023-05-01T18:31:34.042Z,100148.75
2023-05-01T18:34:02.807Z,100157.53
2023-05-01T18:36:32.751Z,100154.84
2023-05-01T18:39:02.046Z,100160.13
2023-05-01T18:41:30.855Z,100168.06
2023-05-01T18:44:01.384Z,100171.56
2023-05-01T18:46:30.255Z,100170.66
2023-05-01T18:48:59.837Z,100172.38
2023-05-01T18:51:28.499Z,100175.88
2023-05-01T18:53:58.971Z,100184.66
2023-05-01T18:56:27.757Z,100174.03
2023-05-01T18:58:56.366Z,100185.47
2023-05-01T19:01:25.395Z,100183.66
2023-05-01T19:03:58.771Z,100199.44
2023-05-01T19:06:27.973Z,100194.06
2023-05-01T19:08:58.351Z,100196.59
2023-05-01T19:11:32.055Z,100199.19
2023-05-01T19:14:00.837Z,100206.16
2023-05-01T19:16:30.089Z,100206.09
2023-05-01T19:18:58.968Z,100208.69
2023-05-01T19:21:28.041Z,100211.31
2023-05-01T19:23:58.265Z,100213.91
2023-05-01T19:26:29.633Z,100224.41
2023-05-01T19:28:58.879Z,100226.13
2023-05-01T19:31:28.115Z,100226.97
2023-05-01T19:33:57.200Z,100230.44
2023-05-01T19:36:26.900Z,100228.66
2023-05-01T19:38:55.688Z,100237.44
2023-05-01T19:41:26.563Z,100227.72
2023-05-01T19:43:55.614Z,100229.41
2023-05-01T19:46:24.804Z,100242.56
2023-05-01T19:48:54.308Z,100238.13
2023-05-01T19:51:23.377Z,100253.03
2023-05-01T19:53:52.391Z,100245.94
2023-05-01T19:56:20.926Z,100245.00
2023-05-01T19:58:51.608Z,100248.47
2023-05-01T20:01:20.417Z,100250.19
2023-05-01T20:03:49.228Z,100255.38
2023-05-01T20:06:18.232Z,100255.31
2023-05-01T20:08:47.320Z,100246.47
2023-05-01T20:11:16.024Z,100259.59
2023-05-01T20:13:46.014Z,100255.97
2023-05-01T20:16:16.319Z,100258.56
2023-05-01T20:18:45.519Z,100258.50
2023-05-01T20:21:14.130Z,100261.06
2023-05-01T20:23:42.867Z,100265.41
2023-05-01T20:26:11.535Z,100257.44
2023-05-01T20:28:40.217Z,100271.41
2023-05-01T20:31:09.444Z,100273.09
2023-05-01T20:33:39.314Z,100273.91
2023-05-01T20:36:08.089Z,100271.19
2023-05-01T20:38:42.057Z,100278.13
2023-05-01T20:41:10.791Z,100271.91
2023-05-01T20:43:39.582Z,100282.38
2023-05-01T20:46:08.195Z,100287.50
2023-05-01T20:48:36.775Z,100282.19
2023-05-01T20:51:06.807Z,100287.38
2023-05-01T20:53:35.710Z,100289.00
2023-05-01T20:56:04.247Z,100295.94
2023-05-01T20:58:32.908Z,100295.00
2023-05-01T21:01:01.845Z,100292.31
2023-05-01T21:03:30.511Z,100287.00
2023-05-01T21:05:59.865Z,100284.28
2023-05-01T21:08:30.131Z,100291.22
2023-05-01T21:10:58.746Z,100292.03
2023-05-01T21:13:28.446Z,100296.31
2023-05-01T21:15:57.388Z,100304.06
2023-05-01T21:18:28.654Z,100307.44
2023-05-01T21:20:57.200Z,100309.06
2023-05-01T21:23:27.219Z,100308.09
2023-05-01T21:25:57.628Z,100318.50
2023-05-01T21:28:26.292Z,100322.78
2023-05-01T21:30:56.268Z,100328.81
2023-05-01T21:33:25.130Z,100326.94
2023-05-01T21:35:53.812Z,100332.97
2023-05-01T21:38:22.421Z,100338.16
2023-05-01T21:40:51.173Z,100335.44
2023-05-01T21:43:21.466Z,100338.00
2023-05-01T21:45:50.006Z,100338.78
2023-05-01T21:48:20.901Z,100344.84
2023-05-01T21:50:50.380Z,100340.44
2023-05-01T21:53:19.102Z,100340.38
2023-05-01T21:55:48.006Z,100343.81
2023-05-01T21:58:16.914Z,100352.50
2023-05-01T22:00:48.434Z,100355.94
2023-05-01T22:03:18.903Z,100354.16
2023-05-01T22:05:47.866Z,100353.22
2023-05-01T22:08:16.375Z,100355.78
2023-05-01T22:10:45.428Z,100359.19
2023-05-01T22:13:14.133Z,100362.56
2023-05-01T22:15:42.940Z,100352.81
2023-05-01T22:18:17.653Z,100352.69
2023-05-01T22:20:46.097Z,100356.97
2023-05-01T22:23:14.714Z,100366.50
2023-05-01T22:25:43.680Z,100363.75
2023-05-01T22:28:12.212Z,100375.03
2023-05-01T22:30:41.416Z,100372.25
2023-05-01T22:33:10.052Z,100373.88
2023-05-01T22:35:39.917Z,100375.50
2023-05-01T22:38:08.679Z,100391.06
2023-05-01T22:40:37.366Z,100384.81
2023-05-01T22:43:06.155Z,100394.28
2023-05-01T22:45:34.973Z,100395.88
2023-05-01T22:48:03.584Z,100397.50
2023-05-01T22:50:33.259Z,100406.09
2023-05-01T22:53:04.213Z,100407.66
2023-05-01T22:55:32.769Z,100412.75
2023-05-01T22:58:01.361Z,100409.94
2023-05-01T23:00:30.289Z,100408.91
2023-05-01T23:03:01.125Z,100417.44
2023-05-01T23:05:29.783Z,100422.59
2023-05-01T23:07:58.420Z,100419.84
2023-05-01T23:10:28.862Z,100433.72
2023-05-01T23:12:58.002Z,100426.59
2023-05-01T23:15:27.442Z,100433.50
2023-05-01T23:17:57.454Z,100443.84
2023-05-01T23:20:26.218Z,100442.00
2023-05-01T23:22:54.738Z,100438.38
2023-05-01T23:25:26.378Z,100436.63
2023-05-01T23:27:57.547Z,100443.59
2023-05-01T23:30:26.101Z,100440.06
2023-05-01T23:32:59.287Z,100435.63
2023-05-01T23:35:28.016Z,100435.59
2023-05-01T23:37:56.690Z,100439.09
2023-05-01T23:40:25.259Z,100435.53
2023-05-01T23:42:55.102Z,100438.13
2023-05-01T23:45:25.549Z,100439.81
2023-05-01T23:47:54.198Z,100435.44
2023-05-01T23:50:25.129Z,100440.69
2023-05-01T23:52:53.666Z,100435.38
2023-05-01T23:55:22.229Z,100441.34
2023-05-01T23:57:50.930Z,100438.63
